createdAt,value
2023-04-04T00:01:13.859Z,49.98
2023-04-04T00:03:43.184Z,50.04
2023-04-04T00:06:13.156Z,50.06
2023-04-04T00:08:42.345Z,50.04
2023-04-04T00:11:10.963Z,50.08
2023-04-04T00:13:40.944Z,50.23
2023-04-04T00:16:11.830Z,50.19
2023-04-04T00:18:40.748Z,50.22
2023-04-04T00:21:09.682Z,50.33
2023-04-04T00:23:39.656Z,50.31
2023-04-04T00:26:09.230Z,50.46
2023-04-04T00:28:38.273Z,50.38
2023-04-04T00:31:08.638Z,50.25
2023-04-04T00:33:37.446Z,50.35
2023-04-04T00:36:07.767Z,50.32
2023-04-04T00:38:36.455Z,50.46
2023-04-04T00:41:07.068Z,50.44
2023-04-04T00:43:36.211Z,50.45
2023-04-04T00:46:08.973Z,50.42
2023-04-04T00:48:38.341Z,50.66
2023-04-04T00:51:08.049Z,50.57
2023-04-04T00:53:38.487Z,50.53
2023-04-04T00:56:11.550Z,50.81
2023-04-04T00:58:41.922Z,50.83
2023-04-04T01:01:11.911Z,50.73
2023-04-04T01:03:42.391Z,50.74
2023-04-04T01:06:11.552Z,50.83
2023-04-04T01:08:42.577Z,50.84
2023-04-04T01:11:11.805Z,50.81
2023-04-04T01:13:43.428Z,50.90
2023-04-04T01:16:16.065Z,50.82
2023-04-04T01:18:46.592Z,51.22
2023-04-04T01:21:17.877Z,51.01
2023-04-04T01:24:00.227Z,51.09
2023-04-04T01:26:36.236Z,51.09
2023-04-04T01:29:09.730Z,51.20
2023-04-04T01:31:46.259Z,51.06
2023-04-04T01:34:36.680Z,51.14
2023-04-04T01:37:17.177Z,51.14
2023-04-04T01:39:49.048Z,51.30
2023-04-04T01:42:20.473Z,51.19
2023-04-04T01:44:55.343Z,51.24
2023-04-04T01:47:25.216Z,51.30
2023-04-04T01:49:54.435Z,51.27
2023-04-04T01:52:24.081Z,51.24
2023-04-04T01:54:52.703Z,51.36
2023-04-04T01:57:21.982Z,51.39
2023-04-04T01:59:53.109Z,51.39
2023-04-04T02:02:23.059Z,51.35
2023-04-04T02:04:52.728Z,51.56
2023-04-04T02:07:21.354Z,51.53
2023-04-04T02:09:50.623Z,51.55
2023-04-04T02:12:20.962Z,51.64
2023-04-04T02:14:50.128Z,51.56
2023-04-04T02:17:18.740Z,51.59
2023-04-04T02:19:47.512Z,51.75
2023-04-04T02:22:17.726Z,51.77
2023-04-04T02:24:49.106Z,51.78
2023-04-04T02:27:17.946Z,51.74
2023-04-04T02:29:49.112Z,51.83
2023-04-04T02:32:18.833Z,51.89
2023-04-04T02:34:51.167Z,51.96
2023-04-04T02:37:20.176Z,51.92
2023-04-04T02:39:51.714Z,51.83
2023-04-04T02:42:20.285Z,52.22
2023-04-04T02:44:49.314Z,52.29
2023-04-04T02:47:18.859Z,52.17
2023-04-04T02:49:47.724Z,52.13
2023-04-04T02:52:17.515Z,52.17
2023-04-04T02:54:47.613Z,52.16
2023-04-04T02:57:24.620Z,52.51
2023-04-04T02:59:53.390Z,52.35
2023-04-04T03:02:25.980Z,52.32
2023-04-04T03:04:56.012Z,52.58
2023-04-04T03:07:24.864Z,52.47
2023-04-04T03:09:56.166Z,52.53
2023-04-04T03:12:25.505Z,52.59
2023-04-04T03:14:56.703Z,52.52
2023-04-04T03:17:27.306Z,52.56
2023-04-04T03:19:58.192Z,52.91
2023-04-04T03:22:27.629Z,52.84
2023-04-04T03:24:56.367Z,52.99
2023-04-04T03:27:24.882Z,52.87
2023-04-04T03:29:54.979Z,53.11
2023-04-04T03:32:23.990Z,52.97
2023-04-04T03:34:52.902Z,53.07
2023-04-04T03:37:22.800Z,53.28
2023-04-04T03:39:52.512Z,53.03
2023-04-04T03:42:22.302Z,53.07
2023-04-04T03:44:51.128Z,53.22
2023-04-04T03:47:28.217Z,53.06
2023-04-04T03:49:57.953Z,53.22
2023-04-04T03:55:35.474Z,53.10
2023-04-04T03:58:05.486Z,53.09
2023-04-04T04:00:36.178Z,53.12
2023-04-04T04:03:05.056Z,53.11
2023-04-04T04:05:35.620Z,53.15
2023-04-04T04:08:06.296Z,53.17
2023-04-04T04:10:35.274Z,53.10
2023-04-04T04:13:05.666Z,53.17
2023-04-04T04:15:35.165Z,53.37
2023-04-04T04:18:07.919Z,53.11
2023-04-04T04:20:37.594Z,53.22
2023-04-04T04:23:06.447Z,53.18
2023-04-04T04:25:35.193Z,53.29
2023-04-04T04:28:16.491Z,53.24
2023-04-04T04:30:45.634Z,53.34
2023-04-04T04:33:16.094Z,53.32
2023-04-04T04:36:04.958Z,53.60
2023-04-04T04:38:41.834Z,53.76
2023-04-04T04:41:11.356Z,53.83
2023-04-04T04:43:45.505Z,53.85
2023-04-04T04:46:18.496Z,53.83
2023-04-04T04:48:48.002Z,53.88
2023-04-04T04:51:19.683Z,53.82
2023-04-04T04:53:52.518Z,53.88
2023-04-04T04:56:22.327Z,53.98
2023-04-04T04:58:52.807Z,53.98
2023-04-04T05:01:28.151Z,54.01
2023-04-04T05:03:58.382Z,54.11
2023-04-04T05:06:34.891Z,54.33
2023-04-04T05:09:05.342Z,54.41
2023-04-04T05:11:37.699Z,54.34
2023-04-04T05:14:07.310Z,54.37
2023-04-04T05:16:39.015Z,54.59
2023-04-04T05:19:08.317Z,54.61
2023-04-04T05:21:42.311Z,54.36
2023-04-04T05:24:13.518Z,54.29
2023-04-04T05:26:43.220Z,54.38
2023-04-04T05:29:12.576Z,54.44
2023-04-04T05:31:43.438Z,54.54
2023-04-04T05:34:17.408Z,54.35
2023-04-04T05:36:46.958Z,54.34
2023-04-04T05:39:19.636Z,54.25
2023-04-04T05:41:59.809Z,54.61
2023-04-04T05:44:30.427Z,54.58
2023-04-04T05:46:59.619Z,54.38
2023-04-04T05:49:30.825Z,54.31
2023-04-04T05:52:00.881Z,54.14
2023-04-04T05:54:31.435Z,54.47
2023-04-04T05:57:02.010Z,54.47
2023-04-04T05:59:42.483Z,54.14
2023-04-04T06:02:13.789Z,54.16
2023-04-04T06:04:55.093Z,53.98
2023-04-04T06:07:47.860Z,54.19
2023-04-04T06:10:18.235Z,53.82
2023-04-04T06:12:47.915Z,54.11
2023-04-04T06:15:17.902Z,53.91
2023-04-04T06:17:49.072Z,53.88
2023-04-04T06:20:24.460Z,53.88
2023-04-04T06:22:56.381Z,54.03
2023-04-04T06:25:27.533Z,54.04
2023-04-04T06:28:00.182Z,53.89
2023-04-04T06:30:29.343Z,54.00
2023-04-04T06:32:59.980Z,53.98
2023-04-04T06:35:30.014Z,53.86
2023-04-04T06:38:01.251Z,53.87
2023-04-04T06:40:32.823Z,53.94
2023-04-04T06:43:03.192Z,53.82
2023-04-04T06:45:40.594Z,53.85
2023-04-04T06:48:10.819Z,53.94
2023-04-04T06:50:40.085Z,53.69
2023-04-04T06:53:15.426Z,53.85
2023-04-04T06:55:49.326Z,53.97
2023-04-04T06:58:20.553Z,53.79
2023-04-04T07:00:52.104Z,53.75
2023-04-04T07:03:24.077Z,53.90
2023-04-04T07:05:53.787Z,53.70
2023-04-04T07:08:24.397Z,53.54
2023-04-04T07:10:54.417Z,53.48
2023-04-04T07:13:23.963Z,53.30
2023-04-04T07:15:55.982Z,53.32
2023-04-04T07:18:26.552Z,53.35
2023-04-04T07:20:56.215Z,53.43
2023-04-04T07:23:25.559Z,53.44
2023-04-04T07:25:55.536Z,53.35
2023-04-04T07:28:24.350Z,53.14
2023-04-04T07:30:54.361Z,53.07
2023-04-04T07:33:24.763Z,52.67
2023-04-04T07:35:55.210Z,52.86
2023-04-04T07:38:26.058Z,52.68
2023-04-04T07:40:56.364Z,52.76
2023-04-04T07:43:27.210Z,52.74
2023-04-04T07:45:56.877Z,52.68
2023-04-04T07:48:25.841Z,52.60
2023-04-04T07:50:55.025Z,52.53
2023-04-04T07:53:23.952Z,52.89
2023-04-04T07:55:52.864Z,52.98
2023-04-04T07:58:22.754Z,52.52
2023-04-04T08:00:52.219Z,52.42
2023-04-04T08:03:24.580Z,52.65
2023-04-04T08:05:53.315Z,52.74
2023-04-04T08:08:22.976Z,52.69
2023-04-04T08:10:51.829Z,52.78
2023-04-04T08:13:20.610Z,52.81
2023-04-04T08:15:50.076Z,52.73
2023-04-04T08:18:19.319Z,52.57
2023-04-04T08:20:48.292Z,52.42
2023-04-04T08:23:18.007Z,52.61
2023-04-04T08:25:47.091Z,52.52
2023-04-04T08:28:16.950Z,52.53
2023-04-04T08:30:46.529Z,52.56
2023-04-04T08:33:15.153Z,52.48
2023-04-04T08:35:45.210Z,52.59
2023-04-04T08:38:13.939Z,52.52
2023-04-04T08:40:45.831Z,52.55
2023-04-04T08:43:16.290Z,52.49
2023-04-04T08:45:47.299Z,52.41
2023-04-04T08:48:19.216Z,52.25
2023-04-04T08:50:49.816Z,52.30
2023-04-04T08:53:20.172Z,52.23
2023-04-04T08:55:49.836Z,52.18
2023-04-04T08:58:21.678Z,52.40
2023-04-04T09:00:53.998Z,52.29
2023-04-04T09:03:27.868Z,52.33
2023-04-04T09:05:59.422Z,52.02
2023-04-04T09:08:29.471Z,52.10
2023-04-04T09:11:00.382Z,52.13
2023-04-04T09:13:29.214Z,52.28
2023-04-04T09:16:00.954Z,52.27
2023-04-04T09:18:34.911Z,51.99
2023-04-04T09:21:13.548Z,52.25
2023-04-04T09:24:17.263Z,52.34
2023-04-04T09:27:01.580Z,52.15
2023-04-04T09:29:40.177Z,52.15
2023-04-04T09:32:19.457Z,52.05
2023-04-04T09:34:55.394Z,52.01
2023-04-04T09:37:32.988Z,52.03
2023-04-04T09:40:11.960Z,52.10
2023-04-04T09:42:43.977Z,52.08
2023-04-04T09:45:17.128Z,52.12
2023-04-04T09:47:51.599Z,52.26
2023-04-04T09:50:26.429Z,51.94
2023-04-04T09:52:59.933Z,52.00
2023-04-04T09:55:36.930Z,51.93
2023-04-04T09:58:13.741Z,52.03
2023-04-04T10:00:49.106Z,52.16
2023-04-04T10:03:22.925Z,51.86
2023-04-04T10:06:06.963Z,52.02
2023-04-04T10:08:39.720Z,51.94
2023-04-04T10:11:12.882Z,51.78
2023-04-04T10:13:49.286Z,52.12
2023-04-04T10:16:19.320Z,52.05
2023-04-04T10:18:57.819Z,52.08
2023-04-04T10:21:28.346Z,51.97
2023-04-04T10:23:59.529Z,51.72
2023-04-04T10:26:28.468Z,51.96
2023-04-04T10:28:59.062Z,51.92
2023-04-04T10:31:30.640Z,52.07
2023-04-04T10:34:16.488Z,51.81
2023-04-04T10:36:52.579Z,52.17
2023-04-04T10:39:30.124Z,52.13
2023-04-04T10:42:00.169Z,51.93
2023-04-04T10:44:40.176Z,52.09
2023-04-04T10:47:08.809Z,51.85
2023-04-04T10:49:39.340Z,51.96
2023-04-04T10:52:08.787Z,51.98
2023-04-04T10:54:38.568Z,51.96
2023-04-04T10:57:07.819Z,51.68
2023-04-04T10:59:56.596Z,51.36
2023-04-04T11:02:47.259Z,51.45
2023-04-04T11:05:21.885Z,51.94
2023-04-04T11:08:07.667Z,51.84
2023-04-04T11:10:42.155Z,51.52
2023-04-04T11:13:31.081Z,51.54
2023-04-04T11:16:21.975Z,51.50
2023-04-04T11:18:52.426Z,51.57
2023-04-04T11:21:28.822Z,51.40
2023-04-04T11:23:58.697Z,51.49
2023-04-04T11:26:33.537Z,51.48
2023-04-04T11:29:04.439Z,51.32
2023-04-04T11:31:35.495Z,51.47
2023-04-04T11:34:07.595Z,51.11
2023-04-04T11:36:56.554Z,51.41
2023-04-04T11:39:30.688Z,51.11
2023-04-04T11:42:12.409Z,51.32
2023-04-04T11:45:17.296Z,51.13
2023-04-04T11:47:50.567Z,51.11
2023-04-04T11:50:21.531Z,51.12
2023-04-04T11:52:52.224Z,51.11
2023-04-04T11:55:24.201Z,51.04
2023-04-04T11:57:55.958Z,51.27
2023-04-04T12:00:37.825Z,51.25
2023-04-04T12:03:11.467Z,51.00
2023-04-04T12:05:41.960Z,50.90
2023-04-04T12:08:11.980Z,50.85
2023-04-04T12:10:42.150Z,50.87
2023-04-04T12:13:11.088Z,50.90
2023-04-04T12:15:41.659Z,50.48
2023-04-04T12:18:11.875Z,50.67
2023-04-04T12:20:43.007Z,50.61
2023-04-04T12:23:38.252Z,50.80
2023-04-04T12:26:11.440Z,50.53
2023-04-04T12:28:40.669Z,50.69
2023-04-04T12:31:11.087Z,50.15
2023-04-04T12:33:43.488Z,50.56
2023-04-04T12:36:13.351Z,50.41
2023-04-04T12:39:02.120Z,50.49
2023-04-04T12:41:31.183Z,50.54
2023-04-04T12:44:02.857Z,50.46
2023-04-04T12:46:39.442Z,50.29
2023-04-04T12:49:11.583Z,50.23
2023-04-04T12:51:43.674Z,50.59
2023-04-04T12:54:28.509Z,50.94
2023-04-04T12:56:58.540Z,50.45
2023-04-04T12:59:32.296Z,50.52
2023-04-04T13:02:02.617Z,50.16
2023-04-04T13:04:34.892Z,50.10
2023-04-04T13:07:05.654Z,50.58
2023-04-04T13:09:37.118Z,50.74
2023-04-04T13:12:09.205Z,50.43
2023-04-04T13:14:56.998Z,49.58
2023-04-04T13:17:28.205Z,49.64
2023-04-04T13:19:57.030Z,50.24
2023-04-04T13:22:35.366Z,50.35
2023-04-04T13:25:06.905Z,49.58
2023-04-04T13:27:38.344Z,49.78
2023-04-04T13:30:10.002Z,50.02
2023-04-04T13:32:39.877Z,49.74
2023-04-04T13:35:09.611Z,49.60
2023-04-04T13:37:40.569Z,49.48
2023-04-04T13:40:11.395Z,49.26
2023-04-04T13:42:42.589Z,49.51
2023-04-04T13:45:13.868Z,49.21
2023-04-04T13:47:42.785Z,48.64
2023-04-04T13:50:13.877Z,49.06
2023-04-04T13:52:45.673Z,49.12
2023-04-04T13:55:16.261Z,48.71
2023-04-04T13:57:45.103Z,48.93
2023-04-04T14:00:17.816Z,49.20
2023-04-04T14:02:47.534Z,48.72
2023-04-04T14:05:17.751Z,48.36
2023-04-04T14:07:49.444Z,48.55
2023-04-04T14:10:18.378Z,48.69
2023-04-04T14:12:47.189Z,48.54
2023-04-04T14:15:16.237Z,48.49
2023-04-04T14:17:46.664Z,48.35
2023-04-04T14:20:17.071Z,48.39
2023-04-04T14:22:45.991Z,48.20
2023-04-04T14:25:15.134Z,48.05
2023-04-04T14:27:46.472Z,47.88
2023-04-04T14:30:17.034Z,47.78
2023-04-04T14:32:50.532Z,47.66
2023-04-04T14:35:19.841Z,47.44
2023-04-04T14:37:50.547Z,47.30
2023-04-04T14:40:20.894Z,47.30
2023-04-04T14:42:49.909Z,47.55
2023-04-04T14:45:21.034Z,47.25
2023-04-04T14:47:49.770Z,47.48
2023-04-04T14:50:19.314Z,47.42
2023-04-04T14:52:53.079Z,47.54
2023-04-04T14:55:24.556Z,47.84
2023-04-04T15:00:28.922Z,47.82
2023-04-04T15:03:00.163Z,47.58
2023-04-04T15:05:33.281Z,47.88
2023-04-04T15:08:04.697Z,47.73
2023-04-04T15:10:34.824Z,47.68
2023-04-04T15:13:06.246Z,47.29
2023-04-04T15:15:37.007Z,47.32
2023-04-04T15:18:06.718Z,47.31
2023-04-04T15:20:42.081Z,47.31
2023-04-04T15:23:37.707Z,46.80
2023-04-04T15:26:07.923Z,46.79
2023-04-04T15:28:36.862Z,46.82
2023-04-04T15:31:08.249Z,46.94
2023-04-04T15:33:41.798Z,47.27
2023-04-04T15:36:15.818Z,46.91
2023-04-04T15:38:46.429Z,46.96
2023-04-04T15:41:19.032Z,46.70
2023-04-04T15:43:49.719Z,46.80
2023-04-04T15:46:20.768Z,46.76
2023-04-04T15:48:52.774Z,46.83
2023-04-04T15:51:22.072Z,46.65
2023-04-04T15:53:54.096Z,46.51
2023-04-04T15:56:24.965Z,46.57
2023-04-04T15:58:56.297Z,46.71
2023-04-04T16:01:25.886Z,46.83
2023-04-04T16:03:58.100Z,46.55
2023-04-04T16:06:30.528Z,46.48
2023-04-04T16:08:59.382Z,46.61
2023-04-04T16:11:30.814Z,46.61
2023-04-04T16:14:01.510Z,46.58
2023-04-04T16:16:30.454Z,46.58
2023-04-04T16:19:00.032Z,46.13
2023-04-04T16:21:31.734Z,45.96
2023-04-04T16:24:02.659Z,46.06
2023-04-04T16:26:32.658Z,46.21
2023-04-04T16:29:05.407Z,46.01
2023-04-04T16:31:34.842Z,46.55
2023-04-04T16:34:04.345Z,46.41
2023-04-04T16:36:33.946Z,46.25
2023-04-04T16:39:03.684Z,46.22
2023-04-04T16:41:35.726Z,46.51
2023-04-04T16:44:04.681Z,46.18
2023-04-04T16:46:35.311Z,46.16
2023-04-04T16:49:04.665Z,46.20
2023-04-04T16:51:33.840Z,46.12
2023-04-04T16:54:02.685Z,46.34
2023-04-04T16:56:31.934Z,46.24
2023-04-04T16:59:03.952Z,46.23
2023-04-04T17:01:34.976Z,46.34
2023-04-04T17:04:04.330Z,46.38
2023-04-04T17:06:36.673Z,46.30
2023-04-04T17:09:05.338Z,46.30
2023-04-04T17:11:34.378Z,46.32
2023-04-04T17:14:03.258Z,46.24
2023-04-04T17:16:32.889Z,46.29
2023-04-04T17:19:03.887Z,46.21
2023-04-04T17:21:34.486Z,46.21
2023-04-04T17:24:54.534Z,46.31
2023-04-04T17:27:33.255Z,46.40
2023-04-04T17:30:03.363Z,46.36
2023-04-04T17:32:34.460Z,46.30
2023-04-04T17:35:04.329Z,46.35
2023-04-04T17:37:33.804Z,46.67
2023-04-04T17:40:06.282Z,46.59
2023-04-04T17:42:35.605Z,46.83
2023-04-04T17:45:05.596Z,46.59
2023-04-04T17:47:36.937Z,46.38
2023-04-04T17:50:06.856Z,46.63
2023-04-04T17:52:38.104Z,46.65
2023-04-04T17:55:09.777Z,46.67
2023-04-04T17:57:41.370Z,46.83
2023-04-04T18:00:11.442Z,46.87
2023-04-04T18:02:41.824Z,46.83
2023-04-04T18:05:13.616Z,46.56
2023-04-04T18:07:43.606Z,46.72
2023-04-04T18:10:17.100Z,46.66
2023-04-04T18:12:47.077Z,46.79
2023-04-04T18:15:19.173Z,46.79
2023-04-04T18:17:50.170Z,46.96
2023-04-04T18:20:28.146Z,46.94
2023-04-04T18:23:33.080Z,46.98
2023-04-04T18:26:04.426Z,47.05
2023-04-04T18:28:34.396Z,47.16
2023-04-04T18:31:05.803Z,47.28
2023-04-04T18:33:37.669Z,47.28
2023-04-04T18:36:10.611Z,47.44
2023-04-04T18:38:40.913Z,47.34
2023-04-04T18:41:15.079Z,47.53
2023-04-04T18:43:46.296Z,47.40
2023-04-04T18:46:18.689Z,47.46
2023-04-04T18:48:48.132Z,47.37
2023-04-04T18:51:23.726Z,47.37
2023-04-04T18:53:53.542Z,47.46
2023-04-04T18:56:23.500Z,47.39
2023-04-04T18:58:55.535Z,47.50
2023-04-04T19:01:27.505Z,47.59
2023-04-04T19:04:00.457Z,47.66
2023-04-04T19:06:33.919Z,47.80
2023-04-04T19:09:05.469Z,47.89
2023-04-04T19:11:36.807Z,47.92
2023-04-04T19:14:09.203Z,47.95
2023-04-04T19:16:40.989Z,48.05
2023-04-04T19:19:16.607Z,48.22
2023-04-04T19:21:48.200Z,47.96
2023-04-04T19:24:49.732Z,48.14
2023-04-04T19:27:26.644Z,48.15
2023-04-04T19:29:59.297Z,48.00
2023-04-04T19:32:32.164Z,48.13
2023-04-04T19:35:04.488Z,48.22
2023-04-04T19:37:35.401Z,48.19
2023-04-04T19:40:15.269Z,48.11
2023-04-04T19:42:46.091Z,48.08
2023-04-04T19:45:15.862Z,48.46
2023-04-04T19:47:46.597Z,48.36
2023-04-04T19:50:38.605Z,48.35
2023-04-04T19:53:09.213Z,48.21
2023-04-04T19:55:42.485Z,48.29
2023-04-04T19:58:44.438Z,48.36
2023-04-04T20:01:28.239Z,48.29
2023-04-04T20:03:59.441Z,48.32
2023-04-04T20:06:30.296Z,48.39
2023-04-04T20:09:02.472Z,48.27
2023-04-04T20:11:35.125Z,48.42
2023-04-04T20:14:09.244Z,48.51
2023-04-04T20:16:38.267Z,48.60
2023-04-04T20:19:08.656Z,48.86
2023-04-04T20:21:39.222Z,48.99
2023-04-04T20:24:34.423Z,48.82
2023-04-04T20:27:05.168Z,49.00
2023-04-04T20:29:38.447Z,48.85
2023-04-04T20:32:09.250Z,49.09
2023-04-04T20:34:41.865Z,49.06
2023-04-04T20:37:22.482Z,49.17
2023-04-04T20:39:54.016Z,49.22
2023-04-04T20:42:34.245Z,49.28
2023-04-04T20:45:09.750Z,49.11
2023-04-04T20:47:43.507Z,49.04
2023-04-04T20:50:18.787Z,49.21
2023-04-04T20:52:47.814Z,49.29
2023-04-04T20:55:18.393Z,49.32
2023-04-04T20:57:47.886Z,49.50
2023-04-04T21:00:26.173Z,49.52
2023-04-04T21:02:56.656Z,49.67
2023-04-04T21:05:31.933Z,49.67
2023-04-04T21:08:05.220Z,49.65
2023-04-04T21:10:40.428Z,49.58
2023-04-04T21:13:10.733Z,49.76
2023-04-04T21:15:39.616Z,49.76
2023-04-04T21:18:09.765Z,49.80
2023-04-04T21:20:46.134Z,50.03
2023-04-04T21:23:32.112Z,50.26
2023-04-04T21:26:04.376Z,50.44
2023-04-04T21:28:36.217Z,50.32
2023-04-04T21:31:15.534Z,50.43
2023-04-04T21:33:46.181Z,50.49
2023-04-04T21:36:19.445Z,50.90
2023-04-04T21:38:50.964Z,50.82
2023-04-04T21:41:40.482Z,51.07
2023-04-04T21:44:10.285Z,51.13
2023-04-04T21:46:40.924Z,50.98
2023-04-04T21:49:12.066Z,50.92
2023-04-04T21:51:41.734Z,51.08
2023-04-04T21:54:16.859Z,51.03
2023-04-04T21:56:46.668Z,51.08
2023-04-04T21:59:17.946Z,51.33
2023-04-04T22:01:47.889Z,51.23
2023-04-04T22:04:16.902Z,51.24
2023-04-04T22:06:45.760Z,51.27
2023-04-04T22:09:16.239Z,51.43
2023-04-04T22:11:46.266Z,51.58
2023-04-04T22:14:18.193Z,51.50
2023-04-04T22:16:47.300Z,51.46
2023-04-04T22:19:27.465Z,51.51
2023-04-04T22:21:58.970Z,51.60
2023-04-04T22:24:54.584Z,51.62
2023-04-04T22:27:25.022Z,51.52
2023-04-04T22:29:54.779Z,51.61
2023-04-04T22:32:23.721Z,51.56
2023-04-04T22:34:53.646Z,51.56
2023-04-04T22:37:23.956Z,51.59
2023-04-04T22:39:53.598Z,51.59
2023-04-04T22:42:24.190Z,51.80
2023-04-04T22:44:53.920Z,51.77
2023-04-04T22:47:24.559Z,51.81
2023-04-04T22:49:56.768Z,52.02
2023-04-04T22:52:26.860Z,51.96
2023-04-04T22:54:57.938Z,52.08
2023-04-04T22:57:27.875Z,52.03
2023-04-04T22:59:57.053Z,52.07
2023-04-04T23:02:28.809Z,52.17
2023-04-04T23:04:59.178Z,52.21
2023-04-04T23:07:30.252Z,52.25
2023-04-04T23:09:59.663Z,52.16
2023-04-04T23:12:29.797Z,52.13
2023-04-04T23:15:06.276Z,52.09
2023-04-04T23:17:47.096Z,52.19
2023-04-04T23:20:22.302Z,52.19
2023-04-04T23:22:52.777Z,52.33
2023-04-04T23:25:26.620Z,52.35
2023-04-04T23:27:58.071Z,52.46
2023-04-04T23:30:27.763Z,52.49
2023-04-04T23:32:57.363Z,52.53
2023-04-04T23:35:28.007Z,52.48
2023-04-04T23:37:57.560Z,52.54
2023-04-04T23:40:27.043Z,52.56
2023-04-04T23:42:56.111Z,52.73
2023-04-04T23:45:25.029Z,52.65
2023-04-04T23:47:55.858Z,52.79
2023-04-04T23:50:26.777Z,52.83
2023-04-04T23:52:56.733Z,52.94
2023-04-04T23:55:26.185Z,52.98
2023-04-04T23:58:01.175Z,53.03
